Lihue, HI

9:21 PM HST on September 22, 2014 (GMT -1000)
Barking Sands PMRF | Change Station
CLOSE
Current Station
Airport
Location: Barking Sands,
Elevation: 13 ft
Nearby Weather Stations

Elev 13 ft 22.02 °N, 159.79 °W | Updated 25 minutes ago

Clear
Clear
81 °F
Feels Like 83 °F
N
5
Wind Variable Wind from ENE

Today
High -- | Low -- °F
--% Chance of Precip.
Yesterday
High -- | Low -- °F
Precip. -- in
6:26 AM 6:33 PM
Waning Crescent, 1% visible
Pressure 30.06 in
Visibility 10.0 miles
Clouds Clear
Heat Index 83 °F
Dew Point 65 °F
Humidity 58%
Rainfall 0.00 in
Snow Depth Not available.
UV 0 out of 12
Pollen Not available.
Air Quality Not available.
Flu Activity Not available.
METAR PHBK 230656Z AUTO 07004KT 10SM CLR 27/18 A3005 RMK AO2 SLP178 T02720183

More Conditions Fewer Conditions

Pressure 30.06 in
Visibility 10.0 miles
Clouds Clear
Heat Index 83 °F
Dew Point 65 °F
Humidity 58%
Rainfall 0.00 in
Snow Depth Not available.
UV 0 out of 12
Pollen Not available.
Air Quality Not available.
Flu Activity Not available.
METAR PHBK 230656Z AUTO 07004KT 10SM CLR 27/18 A3005 RMK AO2 SLP178 T02720183

More Conditions Fewer Conditions

10-Day Weather Forecast

Almanac

Astronomy

Sep. 22, 2014 Rise Set
Actual Time 6:26 AM HST 6:33 PM HST
Civil Twilight 6:04 AM HST 6:55 PM HST
Nautical Twilight 5:38 AM HST 7:21 PM HST
Astronomical Twilight 5:12 AM HST 7:47 PM HST
Moon 5:12 AM HST (9/22) 5:43 PM HST (9/22)
Length of Visible Light 12h 51m
Length of Day
12h 07m
Tomorrow will be 1m 15s shorter.
Waning Crescent, 1% of the Moon is Illuminated
Sep 23
Waning Crescent
Sep 24
New
Oct 1
First Quarter
Oct 8
Full
Oct 15
Last Quarter

Yesterday's Extremes

State Highs State Lows

Community

WunderPhotos

Upload Photos

1,755,608 photos uploaded!

Nearby

Snow Depth

Station Depth Elevation
No new snow has been reported.

Earthquake Activity

City Distance Mag. Time & Date
No recent earthquake activity has been reported nearby.
Minimum magnitude displayed is 2.5.

Coastal Water Temperatures

Place Temperature
No Stations Reporting

Nearby Weather Stations